Danali, Honduras
Current Conditions -  °F | °C
As of 4:00 PM on Tuesday 25 Nov 2014 (Local Time) from MHTG Reporting Station
Broken Clouds Broken Clouds  
Wind Chill: 79°   Ceiling: 3200
Heat Index: 81°   Visibility: 6mi
Dew Point: 66°   Wind: 9mph
Humidity: 65%   Direction: 350°N
Pressure: 29.97"   Gusts: NA
Location:  14.02°N, 86.3°W
Report Text: MHTG 252200Z 35008KT 9999 BKN032CB 26/19 Q1015 A2997 NOSIG
Loading
Personal Weather Stations






























Interactive Weather Map New forecast layout! Learn more

10-Day Weather Forecast

Advertisements
Track Severe Weather on mobile